Flight Track Log - Related Links

Times and Time Zones

All times are in EDT time to prevent confusion due to time zone crossing. See the N1926A flight status page for this flight to view local times or setup timezone preferences in your user account.

Time Position Orientation Groundspeed Altitude Reporting Facility
EDT Latitude Longitude Course Direction KTS MPH feet Rate Location/Type
Wed 11:33:21 AM 32.5800 -85.9025 351° North 164 189 3,500  Level Atlanta Center
Wed 11:34:21 AM 32.6236 -85.9108 351° North 177 204 5,400 1,850 Climbing Atlanta Center
Wed 11:35:21 AM 32.6717 -85.9192 352° North 177 204 7,200 1,550 Climbing Atlanta Center
Wed 11:36:21 AM 32.7258 -85.9278 352° North 184 212 8,500 1,300 Climbing Atlanta Center
Wed 11:37:21 AM 32.7861 -85.9389 351° North 196 226 9,800 1,000 Climbing Atlanta Center
Wed 11:38:21 AM 32.8506 -85.9553 348° North 219 252 10,500 1,050 Climbing Atlanta Center
Wed 11:39:21 AM 32.9131 -85.9664 352° North 226 260 11,900 1,300 Climbing Atlanta Center
Wed 11:40:21 AM 32.9753 -85.9800 350° North 231 266 13,100 1,150 Climbing Atlanta Center
Wed 11:41:21 AM 33.0400 -85.9914 352° North 231 266 14,200 1,050 Climbing Atlanta Center
Wed 11:42:21 AM 33.1022 -86.0028 351° North 231 266 15,200 1,000 Climbing Atlanta Center
Wed 11:43:21 AM 33.1647 -86.0117 353° North 231 266 16,200 900 Climbing Atlanta Center
Wed 11:44:21 AM 33.2292 -86.0256 350° North 231 266 17,000 800 Climbing Atlanta Center
Wed 11:45:21 AM 33.2958 -86.0344 354° North 231 266 17,800 700 Climbing Atlanta Center
Wed 11:46:21 AM 33.3583 -86.0483 349° North 236 272 18,400 650 Climbing Atlanta Center
Wed 11:47:21 AM 33.4228 -86.0597 352° North 236 272 19,100 750 Climbing Atlanta Center
Wed 11:48:21 AM 33.4853 -86.0736 350° North 236 272 19,900 800 Climbing Atlanta Center
Wed 11:49:21 AM 33.5478 -86.0828 353° North 231 266 20,700 700 Climbing Atlanta Center
Wed 11:50:21 AM 33.6017 -86.0964 348° North 226 260 21,300 650 Climbing Atlanta Center
Wed 11:51:21 AM 33.6664 -86.1081 351° North 226 260 22,000 850 Climbing Atlanta Center
Wed 11:52:21 AM 33.7267 -86.1194 351° North 220 253 23,000 900 Climbing Atlanta Center
Wed 11:53:21 AM 33.7889 -86.1308 351° North 220 253 23,800 800 Climbing Atlanta Center
Wed 11:54:21 AM 33.8450 -86.1447 348° North 220 253 24,600 800 Climbing Atlanta Center
Wed 11:55:21 AM 33.9056 -86.1539 353° North 220 253 25,400 700 Climbing Atlanta Center
Wed 11:56:21 AM 33.9658 -86.1653 351° North 220 253 26,000 300 Climbing Atlanta Center
Wed 11:57:21 AM 34.0283 -86.1769 351° North 220 253 26,000  Level Atlanta Center
Wed 11:58:21 AM 34.0947 -86.1886 352° North 225 259 26,000  Level Atlanta Center
Wed 11:59:21 AM 34.1636 -86.2003 352° North 235 270 26,000  Level Atlanta Center
Wed 12:00:21 PM 34.2342 -86.2122 352° North 242 278 26,000  Level Atlanta Center
Wed 12:01:21 PM 34.3028 -86.2264 350° North 242 278 26,000  Level Atlanta Center
Wed 12:02:21 PM 34.3714 -86.2408 350° North 242 278 26,000  Level Atlanta Center
Wed 12:03:21 PM 34.4400 -86.2553 350° North 242 278 26,000  Level Atlanta Center
Wed 12:04:21 PM 34.5086 -86.2697 350° North 242 278 26,000  Level Atlanta Center
Wed 12:05:21 PM 34.5772 -86.2842 350° North 242 278 26,000  Level Atlanta Center
Wed 12:06:21 PM 34.6481 -86.2961 352° North 242 278 26,000  Level Atlanta Center
Wed 12:07:21 PM 34.7147 -86.3081 352° North 242 278 26,000  Level Atlanta Center
Wed 12:08:21 PM 34.7853 -86.3225 350° North 247 284 26,000  Level Atlanta Center
Wed 12:09:21 PM 34.8561 -86.3344 352° North 247 284 26,000  Level Atlanta Center
Wed 12:10:21 PM 34.9225 -86.3492 350° North 247 284 26,000  Level Atlanta Center
Wed 12:11:21 PM 34.9911 -86.3611 352° North 247 284 26,000  Level Atlanta Center
Wed 12:12:21 PM 35.0619 -86.3758 350° North 252 290 26,000  Level Atlanta Center
Wed 12:13:58 PM 35.1717 -86.4019 349° North 266 306 26,000  Level Memphis Center
Wed 12:14:58 PM 35.2431 -86.4189 349° North 260 299 26,000  Level Memphis Center
Wed 12:15:58 PM 35.3122 -86.4308 352° North 254 292 26,000  Level Memphis Center
Wed 12:16:58 PM 35.3856 -86.4428 352° North 254 292 26,000  Level Memphis Center
Wed 12:17:58 PM 35.4569 -86.4547 352° North 254 292 26,000  Level Memphis Center
Wed 12:18:58 PM 35.5242 -86.4694 350° North 254 292 26,000  Level Memphis Center
Wed 12:19:58 PM 35.5933 -86.4839 350° North 254 292 26,000  Level Memphis Center
Wed 12:20:58 PM 35.6625 -86.4961 352° North 254 292 26,000  Level Memphis Center
Wed 12:21:58 PM 35.7319 -86.5108 350° North 248 285 26,000  Level Memphis Center
Wed 12:22:58 PM 35.8011 -86.5256 350° North 248 285 26,000  Level Memphis Center
Wed 12:23:58 PM 35.8703 -86.5375 352° North 248 285 26,000  Level Memphis Center
Wed 12:24:58 PM 35.9375 -86.5525 350° North 248 285 26,000  Level Memphis Center
Wed 12:25:58 PM 36.0067 -86.5672 350° North 243 280 26,000  Level Memphis Center
Wed 12:26:58 PM 36.0697 -86.5797 351° North 243 280 26,000  Level Memphis Center
Wed 12:27:58 PM 36.1347 -86.5919 351° North 238 274 26,000  Level Memphis Center
Wed 12:28:58 PM 36.2039 -86.6042 352° North 238 274 26,000  Level Memphis Center
Wed 12:29:58 PM 36.2731 -86.6167 352° North 238 274 26,000  Level Memphis Center
Wed 12:30:58 PM 36.3403 -86.6289 352° North 238 274 26,000  Level Memphis Center
Wed 12:31:58 PM 36.4094 -86.6439 350° North 238 274 26,000  Level Memphis Center
Wed 12:32:58 PM 36.4786 -86.6586 350° North 238 274 26,000  Level Memphis Center
Wed 12:33:58 PM 36.5478 -86.6736 350° North 238 274 26,000  Level Memphis Center
Wed 12:34:58 PM 36.6150 -86.6861 352° North 238 274 26,000  Level Memphis Center
Wed 12:35:58 PM 36.6819 -86.7011 350° North 238 274 26,000  Level Memphis Center
Wed 12:36:58 PM 36.7472 -86.7161 350° North 238 274 26,000  Level Memphis Center
Wed 12:37:58 PM 36.8164 -86.7314 350° North 238 274 26,000  Level Memphis Center
Wed 12:39:14 PM 36.9106 -86.7483 352° North 251 289 26,000  Level Indianapolis Center
Wed 12:40:15 PM 36.9800 -86.7628 351° North 251 289 26,000  Level Indianapolis Center
Wed 12:41:17 PM 37.0497 -86.7764 351° North 251 289 26,000  Level Indianapolis Center
Wed 12:42:19 PM 37.1189 -86.7917 350° North 252 290 26,000  Level Indianapolis Center
Wed 12:43:20 PM 37.1883 -86.8056 351° North 251 289 26,000  Level Indianapolis Center
Wed 12:44:22 PM 37.2581 -86.8186 352° North 252 290 26,000  Level Indianapolis Center
Wed 12:45:24 PM 37.3275 -86.8331 351° North 252 290 26,000  Level Indianapolis Center
Wed 12:46:25 PM 37.3964 -86.8483 350° North 251 289 26,000  Level Indianapolis Center
Wed 12:47:27 PM 37.4656 -86.8614 351° North 250 288 26,000  Level Indianapolis Center
Wed 12:48:28 PM 37.5342 -86.8750 351° North 250 288 26,000  Level Indianapolis Center
Wed 12:49:30 PM 37.6133 -86.8939 349° North 248 285 26,000  Level Indianapolis Center
Wed 12:50:32 PM 37.6806 -86.9083 350° North 246 283 26,000  Level Indianapolis Center
Wed 12:51:33 PM 37.7483 -86.9222 351° North 245 282 26,000  Level Indianapolis Center
Wed 12:52:35 PM 37.8169 -86.9356 351° North 249 287 26,000  Level Indianapolis Center
Wed 12:53:36 PM 37.8853 -86.9386 358° North 247 284 26,000  Level Indianapolis Center
Wed 12:54:38 PM 37.9533 -86.9428 357° North 245 282 26,000  Level Indianapolis Center
Wed 12:55:39 PM 38.0217 -86.9458 358° North 245 282 26,000  Level Indianapolis Center
Wed 12:56:41 PM 38.0897 -86.9475 359° North 245 282 26,000  Level Indianapolis Center
Wed 12:57:43 PM 38.1711 -86.9503 358° North 245 282 26,000  Level Indianapolis Center
Wed 12:58:44 PM 38.2378 -86.9514 359° North 241 277 26,000  Level Indianapolis Center
Wed 12:59:46 PM 38.3047 -86.9525 359° North 244 281 26,000  Level Indianapolis Center
Wed 01:00:47 PM 38.3717 -86.9581 356° North 244 281 26,000  Level Indianapolis Center
Wed 01:01:49 PM 38.4372 -86.9617 358° North 238 274 26,000  Level Indianapolis Center
Wed 01:02:51 PM 38.5036 -86.9644 358° North 239 275 26,000  Level Indianapolis Center
Wed 01:03:52 PM 38.5822 -86.9692 357° North 237 273 26,000  Level Indianapolis Center
Wed 01:04:54 PM 38.6486 -86.9722 358° North 238 274 26,000  Level Indianapolis Center
Wed 01:05:55 PM 38.7150 -86.9756 358° North 239 275 26,000  Level Indianapolis Center
Wed 01:06:57 PM 38.7811 -86.9792 358° North 237 273 26,000  Level Indianapolis Center
Wed 01:07:59 PM 38.8483 -86.9817 358° North 240 276 26,000  Level Indianapolis Center
Wed 01:09:00 PM 38.9150 -86.9844 358° North 240 276 26,000  Level Indianapolis Center
Wed 01:10:02 PM 38.9806 -86.9889 357° North 237 273 26,000  Level Indianapolis Center
Wed 01:11:04 PM 39.0464 -86.9914 358° North 237 273 26,000  Level Indianapolis Center
Wed 01:12:05 PM 39.1125 -86.9961 357° North 235 270 26,000  Level Indianapolis Center
Wed 01:13:07 PM 39.1872 -86.9992 358° North 236 272 26,000  Level Indianapolis Center
Wed 01:14:09 PM 39.2528 -87.0019 358° North 236 272 26,000  Level Indianapolis Center
Wed 01:15:10 PM 39.3192 -87.0044 358° North 238 274 26,000  Level Indianapolis Center
Wed 01:16:12 PM 39.3861 -87.0075 358° North 239 275 26,000  Level Indianapolis Center
Wed 01:17:14 PM 39.4528 -87.0100 358° North 240 276 26,000  Level Indianapolis Center
Wed 01:18:15 PM 39.5319 -87.0144 358° North 238 274 26,000  Level Indianapolis Center
Wed 01:19:17 PM 39.5992 -87.0172 358° North 240 276 26,000  Level Indianapolis Center
Wed 01:20:19 PM 39.6656 -87.0217 357° North 239 275 26,000  Level Indianapolis Center
Wed 01:21:20 PM 39.7325 -87.0258 357° North 239 275 26,000  Level Indianapolis Center
Wed 01:22:22 PM 39.7989 -87.0308 357° North 238 274 26,000  Level Indianapolis Center
Wed 01:23:24 PM 39.8656 -87.0336 358° North 238 274 26,000 -195 Level Indianapolis Center
Wed 01:24:25 PM 39.9319 -87.0372 358° North 238 274 25,600 -537 Descending Indianapolis Center
Wed 01:25:27 PM 40.0044 -87.0422 357° North 256 295 24,900 -823 Descending Indianapolis Center
Wed 01:26:29 PM 40.0900 -87.0464 358° North 256 295 23,900 -1,268 Descending Indianapolis Center
Wed 01:27:30 PM 40.1669 -87.0497 358° North 274 315 22,300 -1,370 Descending Indianapolis Center
Wed 01:28:01 PM 40.2003 -87.0528 356° North 281 323 21,800 -1,161 Descending Chicago Center
Wed 01:29:03 PM 40.2747 -87.0808 344° North 284 327 20,500 -1,258 Descending Chicago Center
Wed 01:30:05 PM 40.3622 -87.1142 344° North 275 316 19,200 -1,210 Descending Chicago Center
Wed 01:31:07 PM 40.4350 -87.1417 344° North 272 313 18,000 -1,016 Descending Chicago Center
Wed 01:32:09 PM 40.5086 -87.1700 344° North 272 313 17,100 -912 Descending Chicago Center
Wed 01:33:12 PM 40.5806 -87.1969 344° North 272 313 16,100 -912 Descending Chicago Center
Wed 01:34:14 PM 40.6514 -87.2222 345° North 268 308 15,200 -1,306 Descending Chicago Center
Wed 01:35:16 PM 40.7389 -87.2525 345° North 269 310 13,400 -1,597 Descending Chicago Center
Wed 01:36:18 PM 40.8144 -87.2725 349° North 273 314 11,900 -1,161 Descending Chicago Center
Wed 01:37:20 PM 40.8883 -87.2975 346° North 275 316 11,000 -484 Descending Chicago Center
Wed 01:38:22 PM 40.9531 -87.3219 344° North 258 297 10,900 -629 Descending Chicago Center
Wed 01:39:24 PM 41.0175 -87.3467 344° North 245 282 9,700 -1,500 Descending Chicago Center
Wed 01:40:26 PM 41.1039 -87.3783 345° North 265 305 7,800 -1,694 Descending Chicago Center
Wed 01:41:28 PM 41.1781 -87.4011 347° North 272 313 6,200 -1,306 Descending Chicago Center
Wed 01:42:30 PM 41.2506 -87.4269 345° North 273 314 5,100 -1,065 Descending Chicago Center
Wed 01:43:32 PM 41.3181 -87.3947 20° North 273 314 4,000 -532 Descending Chicago Center
Wed 01:44:34 PM 41.3814 -87.3597 23° Northeast 260 299 4,000  Level Chicago Center
Wed 01:45:36 PM 41.4556 -87.3242 20° North 247 284 4,000 -484 Level Chicago Center
Wed 01:46:38 PM 41.5239 -87.3283 357° North 251 289 3,000 -484 Descending Chicago Center
Wed 01:47:40 PM 41.5908 -87.3294 359° North 248 285 3,000  Level Chicago Center
Wed 01:48:42 PM 41.6550 -87.3300 360° North 242 278 3,000  Level Chicago Center
Wed 01:49:44 PM 41.7183 -87.3311 359° North 235 270 3,000  Level Chicago Center
Wed 01:50:46 PM 41.7936 -87.3481 350° North 231 266 3,000  Level Chicago Center
Wed 01:51:48 PM 41.8567 -87.3633 350° North 231 266 3,000  Level Chicago Center
Wed 01:52:50 PM 41.9200 -87.3764 351° North 231 266 3,000  Level Chicago Center
Wed 01:53:52 PM 41.9781 -87.4044 340° North 231 266 3,000  Level Chicago Center
Wed 01:54:54 PM 42.0300 -87.4450 330° Northwest 221 254 3,000  Level Chicago Center
Wed 01:55:56 PM 42.0958 -87.4942 331° Northwest 225 259 3,000  Level Chicago Center
Wed 01:56:57 PM 42.1517 -87.5369 330° Northwest 228 262 3,000  Level Chicago Center
Wed 01:57:59 PM 42.1981 -87.5925 318° Northwest 235 270 3,000  Level Chicago Center
Wed 01:59:01 PM 42.2361 -87.6575 308° West 228 262 3,000  Level Chicago Center
Wed 02:00:03 PM 42.2428 -87.7378 276° West 228 262 3,000  Level Chicago Center
Wed 02:01:05 PM 42.2292 -87.8156 257° West 222 255 3,000  Level Chicago Center
Wed 02:02:07 PM 42.2133 -87.9031 256° West 217 250 3,000  Level Chicago Center
Wed 02:04:00 PM 42.1280 -87.9093 166° South  Level FlightAware
Wed 02:11:00 PM 42.1143 -87.9015 166° South  Level Estimated
Wed 02:12:00 PM 42.1143 -87.9015 166° South  Level Estimated

Login

Don't have an account? Register now (free) for customized features, flight alerts, and more!